Terminal Aerodrome Forecast
Issued by NWS La Crosse, WI

Home | Current Version | Previous Version | Text Only | Print | Product List | Glossary On
Versions: 1 2 3 4 5 6 7 8 9 10 11 12 13 14 15 16 17 18 19 20 21 22 23 24 25 26 27 28 29 30 31 32 33 34 35 36 37 38 39 40 41 42 43 44 45 46 47 48
000
FTUS43 KARX 301329 AAB
TAFRST
TAF AMD
KRST 301329Z 3013/3112 18006KT 1/4SM FG BKN002
     FM301430 19006KT 2SM BR BKN005
     FM301600 20011KT P6SM SCT012
     FM301800 20011G17KT P6SM SKC
     FM302300 19008KT P6SM SKC
     FM310900 19008KT P6SM SCT003=

USA.gov is the U.S. government's official web portal to all federal, state and local government web resources and services.